Latest Weather Observations for Mount Isa

IDQ60801

Issued at 10:02 am EST Thursday 29 January 2015 (issued every 30 minutes, with the page automatically refreshed every 10 minutes)

About weather observations | Map of weather stations | Latest weather observations for QLD | Other Formats
Station Details ID: 029127 Name: MOUNT ISA AERO Lat: -20.68 Lon: 139.49 Height: 340.3 m
Data from the previous 72 hours. | See also: Recent months at Mount Isa
Date/Time
EST
Temp
°C
App
Temp
°C
Dew
Point
Rel
Hum
%
Delta-T
°C
Wind Press
QNH
hPa
Press
MSL
hPa
Rain
since 9 am
mm
Dir
 
Spd
km/h
Gust
km/h
Spd
kts
Gust
kts
29/10:00am 31.1 25.9 3.7 17 14.3 SSE 20 32 11 17 1007.9 - 0.0
29/09:30am 29.2 23.1 2.8 18 13.4 S 24 30 13 16 1007.9 - 0.0
29/09:00am 28.0 21.5 2.5 19 12.8 S 26 33 14 18 1007.7 1005.1 0.0
29/08:30am 26.9 20.4 2.7 21 12.1 S 26 33 14 18 1007.5 - 0.0
29/07:30am 24.3 19.8 2.0 23 10.8 S 15 20 8 11 1007.2 - 0.0
29/07:00am 23.2 19.1 2.0 25 10.2 S 13 17 7 9 1006.9 - 0.0
29/06:30am 22.7 18.2 2.1 25 9.9 S 15 19 8 10 1006.6 - 0.0
29/05:30am 24.1 17.9 -0.6 19 11.4 S 22 28 12 15 1006.5 - 0.0
29/05:00am 24.6 18.2 -1.5 17 11.8 S 22 30 12 16 1006.3 - 0.0
29/04:30am 24.7 18.0 -1.3 18 11.9 S 24 30 13 16 1006.2 - 0.0
29/04:00am 25.0 18.6 -1.5 17 12.1 S 22 28 12 15 1006.2 - 0.0
29/03:30am 25.2 19.2 -1.8 16 12.3 S 20 28 11 15 1006.2 - 0.0
29/03:00am 25.4 19.5 -2.2 16 12.5 S 19 26 10 14 1006.3 1003.7 0.0
29/02:30am 25.3 19.9 -1.2 17 12.2 S 17 20 9 11 1006.3 - 0.0
29/02:00am 25.6 20.2 -1.3 17 12.3 S 17 19 9 10 1006.6 - 0.0
29/01:30am 25.7 20.7 -1.1 17 12.4 S 15 19 8 10 1006.9 - 0.0
29/01:00am 25.9 20.9 -1.5 16 12.6 S 15 17 8 9 1007.2 - 0.0
29/12:30am 25.5 21.8 0.1 19 12.0 S 9 13 5 7 1007.4 - 0.0
29/12:00am 24.6 21.3 4.6 27 10.2 S 11 11 6 6 1007.6 1005.0 0.0
 
Date/Time
EST
Temp
°C
App
Temp
°C
Dew
Point
Rel
Hum
%
Delta-T
°C
Wind Press
QNH
hPa
Press
MSL
hPa
Rain
since 9 am
mm
Dir
 
Spd
km/h
Gust
km/h
Spd
kts
Gust
kts
28/11:30pm 26.1 22.5 0.6 19 12.2 S 9 11 5 6 1007.7 - 0.0
28/11:00pm 26.8 23.7 0.2 17 12.7 S 6 9 3 5 1007.5 - 0.0
28/10:30pm 26.4 23.3 1.3 19 12.2 S 7 9 4 5 1007.2 - 0.0
28/10:00pm 27.1 23.7 1.7 19 12.4 S 9 11 5 6 1006.9 - 0.0
28/09:30pm 28.0 23.7 1.0 17 13.2 S 13 15 7 8 1006.5 - 0.0
28/09:00pm 28.9 24.5 0.3 15 13.9 S 13 15 7 8 1006.3 1003.7 0.0
28/08:30pm 30.3 24.8 -2.3 12 15.2 S 17 20 9 11 1006.1 - 0.0
28/08:00pm 31.3 25.3 -3.4 10 16.0 S 19 24 10 13 1005.9 - 0.0
28/07:30pm 31.8 25.6 -4.6 9 16.5 S 19 28 10 15 1005.4 - 0.0
28/07:00pm 32.3 25.3 -3.5 10 16.7 S 24 32 13 17 1005.0 - 0.0
28/06:30pm 33.1 26.4 -4.2 9 17.2 S 22 35 12 19 1004.5 - 0.0
28/06:00pm 33.5 26.4 -4.5 8 17.6 S 24 32 13 17 1004.3 1001.7 0.0
28/05:32pm 33.9 26.1 -3.7 9 17.6 SSW 28 46 15 25 1004.1 - 0.0
28/05:30pm 34.0 26.9 -4.0 8 17.7 SSW 24 33 13 18 1004.0 - 0.0
28/05:00pm 34.2 27.1 -4.4 8 17.9 SSE 24 33 13 18 1003.8 - 0.0
28/04:30pm 34.8 28.8 -1.9 9 17.8 SSW 20 32 11 17 1003.7 - 0.0
28/04:00pm 34.1 27.1 -3.6 9 17.7 SW 24 35 13 19 1003.9 - 0.0
28/03:30pm 34.8 27.2 -2.4 9 17.9 SSW 28 33 15 18 1004.1 - 0.0
28/03:00pm 34.2 28.1 -2.3 9 17.6 S 20 28 11 15 1004.4 1001.8 0.0
28/02:30pm 33.6 26.3 -3.1 9 17.3 S 26 33 14 18 1004.7 - 0.0
28/02:00pm 33.0 27.1 -1.9 10 16.7 SSE 19 35 10 19 1005.3 - 0.0
28/01:30pm 32.4 26.1 -1.2 11 16.2 SSE 22 35 12 19 1005.7 - 0.0
28/01:00pm 32.9 25.7 1.0 13 16.0 S 28 33 15 18 1006.1 - 0.0
28/12:30pm 31.4 24.7 -1.2 12 15.6 S 24 35 13 19 1006.5 - 0.0
28/12:00pm 31.7 24.8 0.0 13 15.6 SE 26 35 14 19 1006.7 1004.1 0.0
28/11:30am 30.3 22.9 -0.5 13 14.8 S 28 33 15 18 1007.2 - 0.0
28/11:00am 30.2 22.4 -0.8 13 14.9 S 30 39 16 21 1007.4 - 0.0
28/10:30am 29.7 22.7 -0.3 14 14.5 S 26 33 14 18 1007.5 - 0.0
28/10:00am 29.0 21.3 0.1 15 13.9 S 30 37 16 20 1007.8 - 0.0
28/09:30am 27.7 20.2 -1.4 15 13.6 S 28 35 15 19 1007.9 - 0.0
28/09:00am 27.3 19.6 -0.3 16 13.1 SSE 30 41 16 22 1008.1 1005.5 0.0
28/08:30am 26.4 19.2 0.9 19 12.3 SSE 28 37 15 20 1007.9 - 0.0
28/08:00am 25.1 18.2 0.4 19 11.7 SSE 26 33 14 18 1007.9 - 0.0
28/07:30am 24.4 17.0 -0.8 19 11.6 S 28 37 15 20 1007.7 - 0.0
28/07:00am 23.8 17.6 -0.5 20 11.2 S 22 32 12 17 1007.5 - 0.0
28/06:30am 23.6 17.6 -1.3 19 11.2 S 20 26 11 14 1007.2 - 0.0
28/06:00am 23.9 18.0 -1.1 19 11.4 S 20 28 11 15 1006.9 1004.3 0.0
28/05:30am 24.2 18.8 -1.2 18 11.6 S 17 19 9 10 1006.8 - 0.0
28/05:00am 24.4 19.5 -0.8 19 11.6 S 15 17 8 9 1006.7 - 0.0
28/04:30am 24.9 19.5 -1.3 17 12.0 S 17 22 9 12 1006.5 - 0.0
28/04:00am 25.3 19.2 -2.0 16 12.3 S 20 28 11 15 1006.3 - 0.0
28/03:30am 25.3 19.5 -1.2 17 12.2 S 19 24 10 13 1006.1 - 0.0
28/03:00am 26.0 19.2 -2.1 15 12.8 S 24 32 13 17 1006.1 1003.5 0.0
28/02:30am 26.3 18.7 -2.3 15 13.0 S 28 35 15 19 1006.3 - 0.0
28/02:00am 26.6 20.2 -2.0 15 13.1 S 22 30 12 16 1006.6 - 0.0
28/01:30am 26.9 21.2 -0.8 16 13.0 S 19 26 10 14 1007.0 - 0.0
28/01:00am 27.0 21.8 -0.1 17 12.9 S 17 22 9 12 1007.2 - 0.0
28/12:30am 27.2 22.4 0.3 17 12.9 S 15 20 8 11 1007.4 - 0.0
28/12:00am 27.5 23.1 0.6 17 13.0 S 13 19 7 10 1007.5 1004.9 0.0
 
Date/Time
EST
Temp
°C
App
Temp
°C
Dew
Point
Rel
Hum
%
Delta-T
°C
Wind Press
QNH
hPa
Press
MSL
hPa
Rain
since 9 am
mm
Dir
 
Spd
km/h
Gust
km/h
Spd
kts
Gust
kts
27/11:30pm 27.8 23.5 0.9 17 13.1 S 13 15 7 8 1007.6 - 0.0
27/11:00pm 28.4 23.9 -0.1 15 13.7 S 13 17 7 9 1007.6 - 0.0
27/10:30pm 29.0 24.1 -0.8 14 14.2 S 15 20 8 11 1007.5 - 0.0
27/10:00pm 29.6 23.7 -1.0 13 14.6 S 20 26 11 14 1007.1 - 0.0
27/09:30pm 30.3 24.4 -1.9 12 15.2 S 19 22 10 12 1006.8 - 0.0
27/09:00pm 30.8 25.3 -2.4 11 15.6 S 17 24 9 13 1006.6 1004.0 0.0
27/08:30pm 31.2 25.3 -0.8 12 15.4 S 20 28 11 15 1006.3 - 0.0
27/08:00pm 32.3 26.2 -2.5 10 16.4 S 20 28 11 15 1006.1 - 0.0
27/07:30pm 32.6 26.3 -0.7 12 16.3 SSW 22 30 12 16 1005.7 - 0.0
27/07:00pm 33.5 26.6 -2.4 10 17.1 S 24 32 13 17 1005.4 - 0.0
27/06:30pm 34.3 27.5 -1.5 10 17.4 S 24 30 13 16 1005.2 - 0.0
27/06:00pm 34.7 28.0 -0.8 10 17.6 S 24 37 13 20 1004.8 1002.2 0.0
27/05:30pm 35.0 28.3 -0.9 10 17.7 S 24 32 13 17 1004.4 - 0.0
27/05:00pm 35.2 28.2 -0.8 10 17.8 S 26 41 14 22 1004.5 - 0.0
27/04:30pm 35.5 29.7 0.1 10 17.8 S 20 33 11 18 1004.8 - 0.0
27/04:00pm 35.5 28.9 -0.4 10 17.9 SSW 24 35 13 19 1005.2 - 0.0
27/03:30pm 35.6 28.7 0.3 11 17.8 S 26 35 14 19 1005.5 - 0.0
27/03:00pm 34.8 28.9 -0.5 10 17.6 S 20 32 11 17 1005.8 1003.2 0.0
27/02:30pm 35.2 30.1 1.0 11 17.4 S 17 28 9 15 1006.0 - 0.0
27/02:00pm 34.7 27.7 -0.4 10 17.5 S 26 35 14 19 1006.4 - 0.0
27/01:30pm 34.8 28.7 0.3 11 17.4 SSE 22 33 12 18 1006.8 - 0.0
27/01:00pm 34.0 27.4 -0.1 11 17.0 S 24 35 13 19 1007.4 - 0.0
27/12:30pm 33.6 28.5 0.6 12 16.6 SSE 17 30 9 16 1007.8 - 0.0
27/12:00pm 33.4 27.4 0.9 12 16.4 SSE 22 33 12 18 1008.1 1005.5 0.0
27/11:30am 32.7 27.2 0.4 12 16.1 SSE 19 32 10 17 1008.4 - 0.0
27/11:00am 32.2 26.5 0.8 13 15.7 SSE 20 32 11 17 1008.6 - 0.0
27/10:30am 31.4 25.5 1.7 15 15.0 SSE 22 33 12 18 1008.9 - 0.0
27/10:00am 30.8 25.2 1.5 15 14.7 SSE 20 26 11 14 1008.9 - 0.0
27/09:30am 29.7 23.6 0.5 15 14.3 S 22 30 12 16 1008.9 - 0.0
27/09:00am 29.0 23.0 1.2 16 13.7 SSE 22 30 12 16 1009.1 1006.5 0.0
27/08:30am 28.2 22.3 1.7 18 13.1 SSE 22 30 12 16 1009.2 - 0.0
27/08:00am 27.3 22.2 0.9 18 12.8 SSE 17 24 9 13 1008.9 - 0.0
27/07:30am 26.6 21.5 0.9 18 12.4 SSE 17 20 9 11 1008.7 - 0.0
27/07:00am 26.0 21.1 1.9 21 11.8 S 17 20 9 11 1008.3 - 0.0
27/06:30am 25.7 20.4 2.0 21 11.6 S 19 26 10 14 1007.6 - 0.0
27/06:00am 26.0 21.5 1.9 21 11.8 S 15 17 8 9 1007.6 1005.0 0.0
27/05:30am 26.5 21.5 1.5 19 12.2 S 17 22 9 12 1007.5 - 0.0
27/05:00am 27.5 21.0 0.6 17 13.0 S 24 33 13 18 1007.4 - 0.0
27/04:30am 27.4 21.7 0.8 17 12.9 S 20 28 11 15 1007.2 - 0.0
27/04:00am 26.8 22.2 1.8 19 12.2 SSW 15 19 8 10 1007.2 - 0.0
27/03:30am 26.0 23.8 6.1 28 10.5 SSE 7 9 4 5 1007.6 - 0.0
27/03:00am 27.6 23.4 1.6 18 12.8 S 13 17 7 9 1007.4 1004.8 0.0
27/02:30am 27.9 23.3 1.5 18 13.0 S 15 20 8 11 1007.5 - 0.0
27/02:00am 28.3 23.2 0.9 17 13.3 S 17 26 9 14 1007.4 - 0.0
27/01:30am 28.9 22.4 0.6 16 13.8 S 24 32 13 17 1007.6 - 0.0
27/01:00am 29.2 23.2 0.9 16 13.9 S 22 35 12 19 1007.9 - 0.0
27/12:30am 29.4 25.1 1.0 16 14.0 S 13 15 7 8 1008.2 - 0.0
27/12:00am 28.3 24.5 1.6 18 13.2 S 11 13 6 7 1008.5 1005.9 0.0
 
Date/Time
EST
Temp
°C
App
Temp
°C
Dew
Point
Rel
Hum
%
Delta-T
°C
Wind Press
QNH
hPa
Press
MSL
hPa
Rain
since 9 am
mm
Dir
 
Spd
km/h
Gust
km/h
Spd
kts
Gust
kts
26/11:30pm 28.8 24.5 1.2 17 13.6 S 13 15 7 8 1009.0 - 0.0
26/11:00pm 28.4 25.0 3.9 21 12.6 S 11 13 6 7 1009.3 - 0.0
26/10:30pm 29.1 25.8 4.3 20 12.9 S 11 13 6 7 1009.1 - 0.0
26/10:00pm 27.8 25.3 8.3 29 10.8 S 11 11 6 6 1008.9 - 0.0
26/09:30pm 29.9 27.5 8.5 26 12.0 S 11 15 6 8 1008.4 - 0.0
26/09:00pm 31.7 27.4 3.2 16 14.8 S 15 17 8 9 1008.1 1005.5 0.0
26/08:30pm 32.7 28.1 1.7 14 15.8 S 15 20 8 11 1007.6 - 0.0
26/08:00pm 33.5 26.4 1.2 13 16.4 S 28 37 15 20 1007.2 - 0.0
26/07:30pm 34.2 25.9 -0.4 11 17.1 SSW 33 43 18 23 1007.0 - 0.0
26/07:00pm 35.3 28.9 0.8 11 17.6 S 24 35 13 19 1006.4 - 0.0
26/06:30pm 36.2 29.9 3.5 13 17.5 SSW 26 33 14 18 1006.1 - 0.0
26/06:00pm 36.1 30.5 3.3 13 17.5 S 22 30 12 16 1005.8 1003.2 0.0
26/05:30pm 36.9 32.0 4.1 13 17.7 S 19 26 10 14 1005.7 - 0.0
26/05:00pm 36.7 31.6 4.0 13 17.6 S 20 32 11 17 1005.8 - 0.0
26/04:30pm 37.3 32.2 4.3 13 17.9 S 20 32 11 17 1006.0 - 0.0
26/04:00pm 36.7 30.9 4.3 13 17.6 SSW 24 32 13 17 1006.3 - 0.0
26/03:30pm 37.1 32.1 3.4 12 18.0 SSE 19 26 10 14 1006.5 - 0.0
26/03:00pm 37.3 32.4 5.0 13 17.8 SSE 20 39 11 21 1006.7 1004.1 0.0
26/02:30pm 37.5 33.2 5.4 14 17.8 SSE 17 24 9 13 1006.8 - 0.0
26/02:00pm 36.7 32.8 3.5 12 17.8 ESE 13 26 7 14 1007.4 - 0.0
26/01:30pm 36.5 32.6 5.3 14 17.1 ESE 15 22 8 12 1007.9 - 0.0
26/01:00pm 36.5 32.2 5.2 14 17.2 SE 17 26 9 14 1008.4 - 0.0
26/12:30pm 35.7 31.9 5.9 16 16.5 SE 15 22 8 12 1008.8 - 0.0
26/12:00pm 34.7 30.4 5.4 16 16.0 SE 17 20 9 11 1009.3 1006.7 0.0
26/11:30am 34.6 30.1 4.2 15 16.3 ESE 17 24 9 13 1009.7 - 0.0
26/11:00am 34.3 29.7 5.6 16 15.7 E 19 22 10 12 1009.8 - 0.0
26/10:30am 32.8 27.7 6.1 19 14.6 SSE 22 28 12 15 1010.0 - 0.0

Other Formats:

Comma delimited format used in spreadsheet applications
http://www.bom.gov.au/fwo/IDQ60801/IDQ60801.94332.axf

JavaScript Object Notation format (JSON) in row-major order
http://www.bom.gov.au/fwo/IDQ60801/IDQ60801.94332.json